createdAt,value
2023-08-30T00:00:55.821Z,3.10
2023-08-30T00:04:03.924Z,4.60
2023-08-30T00:07:11.995Z,5.50
2023-08-30T00:10:11.738Z,5.90
2023-08-30T00:13:20.702Z,3.30
2023-08-30T00:16:28.221Z,3.40
2023-08-30T00:19:35.310Z,4.20
2023-08-30T00:22:44.100Z,4.00
2023-08-30T00:25:52.388Z,3.10
2023-08-30T00:28:59.053Z,3.50
2023-08-30T00:32:06.726Z,6.40
2023-08-30T00:35:17.546Z,3.60
2023-08-30T00:38:24.285Z,5.40
2023-08-30T00:41:32.096Z,6.40
2023-08-30T00:44:40.945Z,5.20
2023-08-30T00:47:48.187Z,4.50
2023-08-30T00:50:55.892Z,4.50
2023-08-30T00:54:05.079Z,4.50
2023-08-30T00:57:11.977Z,8.50
2023-08-30T01:00:19.523Z,5.40
2023-08-30T01:03:28.060Z,5.00
2023-08-30T01:06:35.495Z,6.30
2023-08-30T01:09:42.951Z,5.50
2023-08-30T01:12:48.408Z,6.30
2023-08-30T01:15:55.654Z,5.50
2023-08-30T01:19:02.958Z,4.50
2023-08-30T01:22:11.688Z,6.60
2023-08-30T01:25:19.296Z,6.00
2023-08-30T01:28:26.377Z,7.00
2023-08-30T01:31:33.508Z,6.40
2023-08-30T01:34:42.391Z,6.30
2023-08-30T01:37:49.526Z,7.80
2023-08-30T01:40:56.615Z,8.10
2023-08-30T01:44:05.436Z,6.60
2023-08-30T01:47:13.118Z,8.30
2023-08-30T01:50:20.357Z,8.40
2023-08-30T01:53:30.097Z,6.10
2023-08-30T01:56:36.959Z,5.90
2023-08-30T01:59:44.608Z,6.20
2023-08-30T02:02:53.836Z,9.40
2023-08-30T02:06:01.673Z,6.90
2023-08-30T02:09:08.989Z,6.60
2023-08-30T02:12:16.794Z,6.60
2023-08-30T02:15:26.138Z,6.90
2023-08-30T02:18:35.129Z,9.60
2023-08-30T02:21:42.452Z,8.90
2023-08-30T02:24:51.246Z,8.20
2023-08-30T02:27:59.093Z,6.80
2023-08-30T02:31:06.382Z,7.00
2023-08-30T02:34:15.300Z,7.80
2023-08-30T02:37:22.803Z,7.30
2023-08-30T02:40:29.591Z,7.80
2023-08-30T02:43:39.469Z,7.20
2023-08-30T02:46:46.642Z,7.50
2023-08-30T02:49:54.012Z,8.30
2023-08-30T02:53:03.220Z,6.20
2023-08-30T02:56:10.649Z,8.30
2023-08-30T02:59:18.356Z,6.20
2023-08-30T03:02:26.359Z,7.90
2023-08-30T03:05:35.116Z,9.10
2023-08-30T03:08:42.348Z,9.00
2023-08-30T03:11:49.857Z,8.50
2023-08-30T03:14:59.341Z,7.50
2023-08-30T03:18:08.072Z,6.10
2023-08-30T03:21:16.127Z,7.00
2023-08-30T03:24:25.222Z,7.40
2023-08-30T03:27:32.413Z,7.30
2023-08-30T03:30:40.188Z,6.70
2023-08-30T03:33:49.588Z,7.30
2023-08-30T03:36:56.798Z,6.60
2023-08-30T03:40:04.443Z,10.20
2023-08-30T03:43:12.029Z,11.70
2023-08-30T03:46:20.567Z,10.80
2023-08-30T03:49:28.093Z,9.30
2023-08-30T03:52:35.690Z,9.10
2023-08-30T03:55:44.473Z,10.00
2023-08-30T03:58:52.674Z,9.20
2023-08-30T04:01:59.697Z,9.70
2023-08-30T04:05:08.249Z,8.50
2023-08-30T04:08:15.727Z,9.90
2023-08-30T04:11:22.511Z,8.20
2023-08-30T04:14:31.063Z,9.30
2023-08-30T04:17:38.287Z,8.70
2023-08-30T04:20:45.233Z,9.00
2023-08-30T04:23:52.057Z,8.30
2023-08-30T04:27:01.174Z,9.40
2023-08-30T04:30:07.941Z,8.00
2023-08-30T04:33:14.964Z,10.70
2023-08-30T04:36:23.542Z,9.50
2023-08-30T04:39:30.567Z,11.40
2023-08-30T04:42:37.296Z,12.40
2023-08-30T04:45:47.733Z,15.40
2023-08-30T04:48:55.540Z,16.50
2023-08-30T04:52:02.136Z,14.60
2023-08-30T04:55:11.164Z,15.10
2023-08-30T04:58:19.039Z,16.20
2023-08-30T05:01:25.707Z,13.10
2023-08-30T05:04:34.537Z,15.40
2023-08-30T05:07:41.925Z,13.40
2023-08-30T05:10:48.985Z,12.50
2023-08-30T05:13:56.371Z,16.40
2023-08-30T05:17:05.361Z,15.30
2023-08-30T05:20:12.351Z,14.50
2023-08-30T05:23:19.678Z,16.10
2023-08-30T05:26:27.827Z,13.40
2023-08-30T05:29:35.328Z,11.60
2023-08-30T05:32:42.623Z,12.30
2023-08-30T05:35:51.546Z,14.60
2023-08-30T05:38:58.889Z,13.30
2023-08-30T05:42:06.869Z,9.80
2023-08-30T05:45:16.307Z,8.30
2023-08-30T05:48:23.973Z,8.20
2023-08-30T05:51:31.413Z,7.60
2023-08-30T05:54:38.516Z,6.10
2023-08-30T05:57:47.227Z,7.30
2023-08-30T06:00:54.286Z,6.60
2023-08-30T06:04:01.964Z,7.20
2023-08-30T06:07:10.517Z,5.10
2023-08-30T06:10:17.549Z,7.90
2023-08-30T06:13:25.428Z,5.40
2023-08-30T06:16:33.495Z,5.30
2023-08-30T06:19:41.381Z,6.60
2023-08-30T06:22:48.396Z,4.50
2023-08-30T06:25:56.946Z,4.50
2023-08-30T06:29:05.329Z,3.50
2023-08-30T06:32:12.710Z,4.60
2023-08-30T06:35:20.303Z,4.40
2023-08-30T06:38:29.179Z,6.30
2023-08-30T06:41:37.191Z,5.10
2023-08-30T06:44:44.499Z,4.90
2023-08-30T06:47:52.947Z,4.30
2023-08-30T06:51:00.334Z,7.40
2023-08-30T06:54:07.671Z,6.80
2023-08-30T06:57:16.696Z,6.90
2023-08-30T07:00:24.376Z,6.90
2023-08-30T07:03:31.101Z,7.00
2023-08-30T07:06:40.124Z,5.40
2023-08-30T07:09:47.159Z,4.70
2023-08-30T07:12:54.325Z,3.60
2023-08-30T07:16:01.824Z,4.60
2023-08-30T07:19:11.096Z,3.20
2023-08-30T07:22:19.078Z,5.20
2023-08-30T07:25:27.022Z,4.50
2023-08-30T07:29:00.358Z,3.90
2023-08-30T07:31:04.580Z,2.40
2023-08-30T07:34:12.501Z,4.90
2023-08-30T07:37:20.610Z,3.90
2023-08-30T07:40:28.248Z,5.00
2023-08-30T07:43:35.327Z,5.90
2023-08-30T07:46:43.884Z,4.10
2023-08-30T07:49:51.264Z,4.10
2023-08-30T07:52:58.751Z,2.70
2023-08-30T07:56:05.772Z,2.60
2023-08-30T07:59:14.368Z,2.00
2023-08-30T08:02:21.957Z,4.10
2023-08-30T08:05:28.482Z,4.70
2023-08-30T08:08:37.933Z,4.10
2023-08-30T08:11:45.138Z,2.20
2023-08-30T08:14:53.167Z,2.10
2023-08-30T08:18:02.454Z,2.80
2023-08-30T08:21:10.060Z,2.70
2023-08-30T08:24:17.852Z,3.90
2023-08-30T08:27:27.696Z,2.10
2023-08-30T08:30:34.625Z,2.60
2023-08-30T08:33:41.758Z,5.80
2023-08-30T08:36:48.780Z,3.20
2023-08-30T08:39:57.682Z,3.10
2023-08-30T08:43:04.512Z,3.40
2023-08-30T08:46:12.176Z,3.40
2023-08-30T08:49:20.741Z,3.50
2023-08-30T08:52:32.970Z,2.80
2023-08-30T08:55:32.092Z,2.10
2023-08-30T08:58:40.599Z,4.00
2023-08-30T09:01:48.140Z,6.10
2023-08-30T09:04:55.345Z,2.80
2023-08-30T09:08:04.267Z,5.20
2023-08-30T09:11:11.096Z,1.90
2023-08-30T09:14:18.961Z,3.50
2023-08-30T09:17:25.694Z,2.30
2023-08-30T09:20:33.875Z,2.30
2023-08-30T09:23:40.988Z,3.90
2023-08-30T09:26:48.099Z,3.20
2023-08-30T09:29:57.137Z,3.30
2023-08-30T09:33:04.675Z,5.40
2023-08-30T09:36:11.749Z,1.70
2023-08-30T09:39:20.125Z,2.70
2023-08-30T09:42:27.287Z,2.80
2023-08-30T09:45:34.907Z,1.80
2023-08-30T09:48:43.497Z,3.90
2023-08-30T09:51:50.698Z,4.10
2023-08-30T09:54:57.712Z,5.10
2023-08-30T09:58:04.406Z,2.50
2023-08-30T10:01:13.607Z,4.60
2023-08-30T10:04:20.942Z,2.60
2023-08-30T10:08:05.845Z,3.70
2023-08-30T10:11:14.391Z,3.50
2023-08-30T10:14:21.920Z,2.70
2023-08-30T10:17:29.589Z,1.50
2023-08-30T10:20:39.015Z,4.40
2023-08-30T10:23:46.017Z,2.90
2023-08-30T10:26:53.651Z,2.10
2023-08-30T10:30:02.574Z,2.20
2023-08-30T10:33:11.082Z,1.90
2023-08-30T10:36:18.340Z,2.30
2023-08-30T10:39:27.839Z,2.20
2023-08-30T10:42:34.923Z,2.40
2023-08-30T10:45:42.369Z,1.60
2023-08-30T10:48:49.907Z,4.40
2023-08-30T10:51:58.541Z,2.50
2023-08-30T10:55:06.062Z,3.80
2023-08-30T10:58:14.161Z,3.30
2023-08-30T11:01:23.293Z,5.50
2023-08-30T11:04:30.000Z,4.90
2023-08-30T11:07:37.486Z,3.20
2023-08-30T11:10:45.726Z,1.90
2023-08-30T11:13:53.267Z,3.60
2023-08-30T11:17:00.572Z,3.30
2023-08-30T11:20:09.159Z,1.70
2023-08-30T11:23:16.949Z,2.30
2023-08-30T11:26:24.050Z,2.20
2023-08-30T11:29:31.507Z,3.80
2023-08-30T11:32:40.328Z,3.70
2023-08-30T11:35:48.405Z,3.70
2023-08-30T11:38:55.632Z,2.40
2023-08-30T11:42:17.070Z,4.30
2023-08-30T11:45:09.380Z,5.60
2023-08-30T11:48:16.114Z,5.30
2023-08-30T11:51:24.918Z,4.00
2023-08-30T11:54:32.510Z,4.10
2023-08-30T11:57:39.628Z,4.80
2023-08-30T12:00:48.013Z,3.50
2023-08-30T12:03:55.273Z,2.50
2023-08-30T12:07:02.957Z,3.00
2023-08-30T12:10:11.935Z,4.10
2023-08-30T12:13:18.938Z,3.10
2023-08-30T12:16:27.096Z,3.30
2023-08-30T12:19:33.846Z,4.10
2023-08-30T12:22:42.674Z,3.70
2023-08-30T12:25:50.163Z,3.40
2023-08-30T12:28:56.961Z,3.90
2023-08-30T12:32:05.933Z,3.70
2023-08-30T12:35:13.821Z,4.60
2023-08-30T12:38:21.474Z,2.50
2023-08-30T12:41:30.135Z,3.00
2023-08-30T12:44:38.187Z,4.00
2023-08-30T12:47:45.015Z,3.30
2023-08-30T12:50:54.195Z,2.70
2023-08-30T12:54:01.759Z,4.40
2023-08-30T12:57:08.495Z,4.20
2023-08-30T13:00:16.274Z,4.80
2023-08-30T13:03:42.455Z,2.20
2023-08-30T13:06:49.751Z,3.00
2023-08-30T13:09:56.899Z,1.70
2023-08-30T13:13:05.820Z,4.80
2023-08-30T13:16:13.068Z,3.20
2023-08-30T13:19:21.050Z,1.70
2023-08-30T13:22:29.252Z,2.90
2023-08-30T13:25:36.753Z,2.80
2023-08-30T13:28:44.417Z,2.90
2023-08-30T13:31:53.286Z,4.80
2023-08-30T13:35:00.929Z,2.40
2023-08-30T13:38:08.049Z,5.20
2023-08-30T13:41:15.678Z,3.80
2023-08-30T13:44:24.136Z,2.30
2023-08-30T13:47:31.790Z,1.70
2023-08-30T13:50:39.190Z,1.80
2023-08-30T13:53:47.770Z,3.00
2023-08-30T13:56:54.784Z,2.30
2023-08-30T14:00:02.186Z,2.90
2023-08-30T14:03:10.459Z,2.60
2023-08-30T14:06:18.486Z,3.40
2023-08-30T14:09:26.574Z,3.20
2023-08-30T14:12:35.000Z,3.00
2023-08-30T14:15:42.579Z,3.60
2023-08-30T14:18:50.701Z,2.30
2023-08-30T14:21:58.936Z,4.90
2023-08-30T14:25:12.148Z,3.10
2023-08-30T14:28:09.298Z,1.70
2023-08-30T14:31:20.092Z,2.30
2023-08-30T14:34:28.616Z,2.30
2023-08-30T14:37:37.215Z,4.90
2023-08-30T14:40:44.157Z,3.10
2023-08-30T14:43:53.349Z,2.90
2023-08-30T14:47:00.765Z,4.10
2023-08-30T14:50:07.396Z,2.10
2023-08-30T14:53:16.454Z,4.30
2023-08-30T14:56:24.029Z,3.30
2023-08-30T14:59:31.076Z,3.00
2023-08-30T15:02:39.436Z,2.50
2023-08-30T15:05:47.199Z,2.70
2023-08-30T15:08:54.403Z,2.80
2023-08-30T15:12:02.030Z,2.10
2023-08-30T15:15:10.146Z,2.70
2023-08-30T15:18:18.574Z,4.20
2023-08-30T15:21:26.252Z,2.50
2023-08-30T15:25:12.957Z,5.20
2023-08-30T15:28:20.467Z,4.80
2023-08-30T15:31:27.928Z,4.40
2023-08-30T15:34:37.382Z,4.80
2023-08-30T15:37:44.298Z,4.10
2023-08-30T15:40:52.647Z,3.30
2023-08-30T15:44:01.479Z,3.20
2023-08-30T15:47:09.191Z,4.30
2023-08-30T15:50:17.015Z,4.90
2023-08-30T15:53:25.731Z,4.50
2023-08-30T15:56:33.915Z,5.30
2023-08-30T15:59:41.360Z,3.60
2023-08-30T16:02:48.622Z,3.70
2023-08-30T16:05:58.251Z,4.40
2023-08-30T16:09:06.748Z,3.10
2023-08-30T16:12:14.608Z,3.30
2023-08-30T16:15:23.863Z,4.00
2023-08-30T16:18:31.303Z,4.50
2023-08-30T16:21:38.969Z,3.10
2023-08-30T16:24:47.082Z,3.60
2023-08-30T16:27:54.205Z,7.20
2023-08-30T16:31:01.799Z,3.60
2023-08-30T16:34:10.335Z,2.90
2023-08-30T16:37:18.054Z,3.20
2023-08-30T16:40:25.539Z,3.40
2023-08-30T16:43:32.167Z,4.30
2023-08-30T16:46:41.096Z,6.80
2023-08-30T16:49:48.738Z,4.30
2023-08-30T16:52:55.457Z,6.00
2023-08-30T16:56:04.836Z,5.60
2023-08-30T16:59:12.019Z,6.10
2023-08-30T17:02:19.226Z,6.10
2023-08-30T17:05:27.695Z,5.00
2023-08-30T17:08:35.414Z,6.30
2023-08-30T17:11:43.005Z,8.90
2023-08-30T17:14:51.118Z,4.20
2023-08-30T17:17:59.106Z,4.30
2023-08-30T17:21:06.268Z,5.90
2023-08-30T17:24:14.322Z,7.80
2023-08-30T17:27:22.425Z,7.20
2023-08-30T17:30:29.921Z,8.20
2023-08-30T17:33:36.887Z,11.90
2023-08-30T17:36:46.218Z,12.40
2023-08-30T17:39:52.889Z,12.60
2023-08-30T17:43:00.889Z,13.40
2023-08-30T17:46:10.000Z,16.70
2023-08-30T17:49:17.120Z,18.80
2023-08-30T17:52:24.884Z,19.20
2023-08-30T17:55:34.214Z,22.00
2023-08-30T17:58:41.169Z,30.00
2023-08-30T18:01:48.973Z,36.50
2023-08-30T18:04:57.981Z,39.70
2023-08-30T18:08:04.976Z,47.40
2023-08-30T18:11:12.384Z,48.40
2023-08-30T18:14:20.211Z,61.30
2023-08-30T18:17:28.878Z,64.60
2023-08-30T18:20:37.200Z,83.90
2023-08-30T18:23:44.829Z,78.50
2023-08-30T18:26:53.405Z,88.50
2023-08-30T18:30:00.947Z,95.10
2023-08-30T18:33:08.175Z,105.30
2023-08-30T18:36:16.294Z,139.50
2023-08-30T18:39:23.834Z,63.50
2023-08-30T18:42:31.183Z,33.50
2023-08-30T18:45:39.839Z,19.00
2023-08-30T18:48:47.359Z,13.80
2023-08-30T18:51:54.894Z,23.00
2023-08-30T18:55:02.235Z,13.60
2023-08-30T18:58:10.993Z,21.60
2023-08-30T19:01:18.596Z,19.40
2023-08-30T19:04:25.685Z,13.80
2023-08-30T19:07:34.910Z,19.70
2023-08-30T19:10:43.544Z,18.30
2023-08-30T19:13:51.709Z,17.90
2023-08-30T19:17:00.790Z,18.80
2023-08-30T19:20:08.403Z,13.10
2023-08-30T19:23:15.901Z,14.30
2023-08-30T19:26:25.898Z,12.30
2023-08-30T19:29:33.237Z,15.80
2023-08-30T19:32:39.888Z,14.00
2023-08-30T19:35:47.273Z,18.40
2023-08-30T19:38:55.865Z,19.10
2023-08-30T19:42:03.074Z,10.20
2023-08-30T19:45:10.848Z,16.20
2023-08-30T19:48:20.157Z,12.70
2023-08-30T19:51:27.926Z,14.50
2023-08-30T19:54:35.183Z,13.80
2023-08-30T19:57:44.636Z,11.30
2023-08-30T20:00:51.538Z,13.10
2023-08-30T20:03:58.344Z,14.50
2023-08-30T20:07:06.828Z,16.50
2023-08-30T20:10:14.727Z,15.40
2023-08-30T20:13:22.514Z,16.10
2023-08-30T20:16:29.817Z,15.80
2023-08-30T20:19:38.185Z,20.30
2023-08-30T20:22:45.858Z,15.80
2023-08-30T20:25:52.948Z,15.30
2023-08-30T20:29:02.042Z,19.40
2023-08-30T20:32:10.866Z,20.00
2023-08-30T20:35:20.731Z,18.60
2023-08-30T20:38:30.043Z,14.70
2023-08-30T20:41:37.760Z,17.30
2023-08-30T20:44:44.565Z,16.70
2023-08-30T20:47:53.213Z,17.40
2023-08-30T20:51:00.246Z,19.40
2023-08-30T20:54:06.996Z,17.50
2023-08-30T20:57:15.893Z,21.00
2023-08-30T21:00:23.004Z,29.50
2023-08-30T21:03:31.061Z,34.50
2023-08-30T21:06:39.434Z,36.20
2023-08-30T21:09:48.137Z,47.00
2023-08-30T21:15:55.122Z,36.90
2023-08-30T21:19:04.410Z,32.00
2023-08-30T21:22:11.798Z,33.80
2023-08-30T21:25:19.093Z,29.60
2023-08-30T21:28:27.756Z,28.50
2023-08-30T21:31:36.002Z,27.60
2023-08-30T21:34:44.060Z,21.00
2023-08-30T21:37:52.812Z,19.70
2023-08-30T21:41:00.077Z,17.30
2023-08-30T21:44:07.270Z,20.40
2023-08-30T21:47:14.334Z,18.30
2023-08-30T21:50:22.929Z,13.70
2023-08-30T21:53:30.507Z,15.30
2023-08-30T21:56:39.135Z,13.50
2023-08-30T21:59:48.022Z,16.80
2023-08-30T22:02:55.788Z,16.10
2023-08-30T22:06:02.716Z,17.70
2023-08-30T22:09:11.665Z,14.10
2023-08-30T22:12:18.482Z,15.40
2023-08-30T22:15:26.334Z,17.10
2023-08-30T22:18:34.401Z,15.70
2023-08-30T22:21:41.947Z,14.20
2023-08-30T22:24:49.238Z,19.00
2023-08-30T22:27:56.328Z,24.00
2023-08-30T22:31:05.499Z,17.60
2023-08-30T22:34:12.543Z,20.20
2023-08-30T22:37:20.068Z,22.50
2023-08-30T22:40:29.088Z,24.30
2023-08-30T22:43:36.731Z,23.30
2023-08-30T22:46:43.561Z,23.00
2023-08-30T22:49:53.589Z,22.30
2023-08-30T22:53:00.802Z,25.20
2023-08-30T22:56:08.517Z,27.20
2023-08-30T22:59:17.270Z,29.20
2023-08-30T23:02:24.984Z,27.50
2023-08-30T23:05:32.162Z,30.90
2023-08-30T23:08:39.693Z,29.10
2023-08-30T23:11:49.754Z,35.70
2023-08-30T23:14:56.987Z,40.50
2023-08-30T23:18:04.706Z,33.50
2023-08-30T23:21:13.390Z,39.80
2023-08-30T23:24:20.728Z,48.30
2023-08-30T23:27:27.986Z,47.20
2023-08-30T23:30:36.837Z,39.80
2023-08-30T23:33:43.997Z,41.70
2023-08-30T23:36:51.649Z,37.90
2023-08-30T23:39:59.882Z,36.90
2023-08-30T23:43:07.459Z,37.30
2023-08-30T23:46:14.608Z,31.90
2023-08-30T23:49:23.099Z,37.10
2023-08-30T23:52:32.564Z,38.90
2023-08-30T23:55:40.707Z,30.80
2023-08-30T23:58:48.862Z,27.10
